createdAt,value
2023-07-15T00:01:21.368Z,94608.34
2023-07-15T00:03:47.872Z,94608.13
2023-07-15T00:06:14.778Z,94604.81
2023-07-15T00:08:41.374Z,94601.47
2023-07-15T00:11:07.702Z,94611.06
2023-07-15T00:13:34.066Z,94610.50
2023-07-15T00:16:00.408Z,94611.13
2023-07-15T00:18:26.976Z,94601.19
2023-07-15T00:20:53.311Z,94606.09
2023-07-15T00:23:19.639Z,94604.81
2023-07-15T00:25:46.182Z,94602.72
2023-07-15T00:28:12.554Z,94596.28
2023-07-15T00:30:38.970Z,94592.34
2023-07-15T00:33:05.406Z,94593.38
2023-07-15T00:35:31.872Z,94593.16
2023-07-15T00:37:58.460Z,94595.03
2023-07-15T00:40:25.057Z,94593.88
2023-07-15T00:42:51.543Z,94595.13
2023-07-15T00:45:18.737Z,94592.94
2023-07-15T00:47:45.082Z,94597.16
2023-07-15T00:50:11.429Z,94591.91
2023-07-15T00:52:37.737Z,94593.41
2023-07-15T00:55:04.104Z,94590.84
2023-07-15T00:57:30.492Z,94589.00
2023-07-15T00:59:56.908Z,94600.75
2023-07-15T01:02:23.370Z,94592.25
2023-07-15T01:04:49.873Z,94585.84
2023-07-15T01:07:16.227Z,94586.09
2023-07-15T01:09:42.562Z,94578.88
2023-07-15T01:12:08.929Z,94579.22
2023-07-15T01:14:35.423Z,94574.69
2023-07-15T01:17:01.800Z,94581.88
2023-07-15T01:19:28.118Z,94563.97
2023-07-15T01:21:54.549Z,94560.94
2023-07-15T01:24:20.922Z,94563.38
2023-07-15T01:26:47.438Z,94562.69
2023-07-15T01:29:14.004Z,94556.91
2023-07-15T01:31:41.456Z,94559.94
2023-07-15T01:34:07.991Z,94559.28
2023-07-15T01:36:34.435Z,94561.88
2023-07-15T01:39:00.856Z,94561.97
2023-07-15T01:41:27.260Z,94561.03
2023-07-15T01:43:53.640Z,94561.72
2023-07-15T01:46:20.099Z,94558.81
2023-07-15T01:48:46.445Z,94561.28
2023-07-15T01:51:12.790Z,94569.75
2023-07-15T01:53:40.252Z,94571.84
2023-07-15T01:56:06.643Z,94566.25
2023-07-15T01:58:33.078Z,94571.34
2023-07-15T02:00:59.502Z,94560.06
2023-07-15T02:03:26.046Z,94561.13
2023-07-15T02:05:52.482Z,94568.66
2023-07-15T02:08:19.043Z,94557.53
2023-07-15T02:10:45.420Z,94562.19
2023-07-15T02:13:11.792Z,94570.91
2023-07-15T02:15:38.114Z,94563.31
2023-07-15T02:18:04.604Z,94559.13
2023-07-15T02:20:31.097Z,94560.72
2023-07-15T02:22:57.552Z,94564.91
2023-07-15T02:25:23.996Z,94548.88
2023-07-15T02:27:50.434Z,94550.75
2023-07-15T02:30:16.858Z,94547.84
2023-07-15T02:32:43.284Z,94544.94
2023-07-15T02:35:09.685Z,94537.25
2023-07-15T02:37:36.282Z,94544.84
2023-07-15T02:40:03.104Z,94542.16
2023-07-15T02:42:29.432Z,94537.16
2023-07-15T02:44:55.942Z,94538.16
2023-07-15T02:47:22.304Z,94539.81
2023-07-15T02:49:48.647Z,94533.38
2023-07-15T02:52:14.973Z,94530.06
2023-07-15T02:54:41.292Z,94524.91
2023-07-15T02:57:07.681Z,94524.13
2023-07-15T02:59:34.075Z,94528.03
2023-07-15T03:02:00.477Z,94526.41
2023-07-15T03:04:26.817Z,94524.88
2023-07-15T03:06:53.147Z,94523.97
2023-07-15T03:09:19.525Z,94522.66
2023-07-15T03:11:45.904Z,94518.34
2023-07-15T03:14:12.274Z,94520.19
2023-07-15T03:16:38.627Z,94517.75
2023-07-15T03:19:04.956Z,94511.00
2023-07-15T03:21:31.328Z,94514.38
2023-07-15T03:23:57.892Z,94521.41
2023-07-15T03:26:24.213Z,94518.63
2023-07-15T03:28:50.833Z,94524.41
2023-07-15T03:31:17.247Z,94530.19
2023-07-15T03:33:43.661Z,94536.78
2023-07-15T03:36:10.005Z,94534.31
2023-07-15T03:38:37.400Z,94529.19
2023-07-15T03:41:03.784Z,94530.94
2023-07-15T03:43:30.191Z,94523.50
2023-07-15T03:45:56.597Z,94529.25
2023-07-15T03:48:22.935Z,94527.84
2023-07-15T03:50:49.365Z,94523.75
2023-07-15T03:53:15.909Z,94529.69
2023-07-15T03:55:42.243Z,94534.25
2023-07-15T03:58:08.562Z,94531.09
2023-07-15T04:00:34.925Z,94522.81
2023-07-15T04:03:01.362Z,94522.38
2023-07-15T04:05:27.799Z,94524.59
2023-07-15T04:07:54.139Z,94522.81
2023-07-15T04:10:20.551Z,94529.78
2023-07-15T04:12:46.892Z,94526.13
2023-07-15T04:15:13.277Z,94528.59
2023-07-15T04:17:39.830Z,94523.06
2023-07-15T04:20:06.455Z,94516.13
2023-07-15T04:22:32.839Z,94513.03
2023-07-15T04:24:59.255Z,94502.94
2023-07-15T04:27:25.844Z,94502.06
2023-07-15T04:29:52.175Z,94503.91
2023-07-15T04:32:18.693Z,94486.88
2023-07-15T04:34:45.139Z,94487.69
2023-07-15T04:37:11.469Z,94486.22
2023-07-15T04:39:37.838Z,94493.38
2023-07-15T04:42:04.287Z,94495.41
2023-07-15T04:44:30.713Z,94491.53
2023-07-15T04:46:57.034Z,94489.59
2023-07-15T04:49:23.392Z,94477.03
2023-07-15T04:51:49.715Z,94468.03
2023-07-15T04:54:16.091Z,94475.69
2023-07-15T04:56:44.745Z,94479.97
2023-07-15T04:59:11.224Z,94477.44
2023-07-15T05:01:37.981Z,94477.44
2023-07-15T05:04:06.372Z,94471.16
2023-07-15T05:06:32.762Z,94467.66
2023-07-15T05:09:01.443Z,94458.75
2023-07-15T05:11:27.802Z,94453.44
2023-07-15T05:13:54.632Z,94449.84
2023-07-15T05:16:21.136Z,94443.50
2023-07-15T05:18:47.665Z,94447.47
2023-07-15T05:21:14.209Z,94443.06
2023-07-15T05:23:40.768Z,94443.81
2023-07-15T05:26:07.336Z,94451.97
2023-07-15T05:28:33.759Z,94447.91
2023-07-15T05:31:00.169Z,94448.03
2023-07-15T05:33:26.571Z,94444.34
2023-07-15T05:35:52.897Z,94453.69
2023-07-15T05:38:19.279Z,94449.28
2023-07-15T05:40:45.626Z,94458.81
2023-07-15T05:43:12.000Z,94463.00
2023-07-15T05:45:38.401Z,94463.13
2023-07-15T05:48:04.912Z,94461.72
2023-07-15T05:50:31.416Z,94463.25
2023-07-15T05:52:58.039Z,94460.41
2023-07-15T05:55:24.470Z,94472.75
2023-07-15T05:57:51.055Z,94474.72
2023-07-15T06:00:17.380Z,94471.56
2023-07-15T06:02:43.755Z,94481.44
2023-07-15T06:05:10.183Z,94485.13
2023-07-15T06:07:36.760Z,94485.66
2023-07-15T06:10:03.141Z,94489.34
2023-07-15T06:12:29.470Z,94493.75
2023-07-15T06:14:55.844Z,94493.00
2023-07-15T06:17:22.447Z,94491.56
2023-07-15T06:19:48.919Z,94482.09
2023-07-15T06:22:15.252Z,94483.88
2023-07-15T06:24:41.590Z,94484.06
2023-07-15T06:27:07.918Z,94481.78
2023-07-15T06:29:34.311Z,94480.66
2023-07-15T06:32:00.653Z,94478.41
2023-07-15T06:34:26.988Z,94467.81
2023-07-15T06:36:55.824Z,94471.19
2023-07-15T06:39:22.553Z,94470.34
2023-07-15T06:41:48.947Z,94463.25
2023-07-15T06:44:15.279Z,94465.44
2023-07-15T06:46:41.715Z,94465.28
2023-07-15T06:49:08.061Z,94455.75
2023-07-15T06:51:34.387Z,94465.03
2023-07-15T06:54:00.733Z,94463.03
2023-07-15T06:56:27.057Z,94459.47
2023-07-15T06:58:53.373Z,94456.34
2023-07-15T07:01:19.943Z,94457.56
2023-07-15T07:03:46.616Z,94456.09
2023-07-15T07:06:12.953Z,94454.72
2023-07-15T07:08:39.287Z,94472.81
2023-07-15T07:11:05.611Z,94478.84
2023-07-15T07:13:32.011Z,94479.75
2023-07-15T07:15:58.388Z,94471.22
2023-07-15T07:18:24.818Z,94473.47
2023-07-15T07:20:51.246Z,94472.13
2023-07-15T07:23:17.643Z,94474.28
2023-07-15T07:25:43.977Z,94471.66
2023-07-15T07:28:10.311Z,94474.13
2023-07-15T07:30:36.670Z,94474.16
2023-07-15T07:33:03.088Z,94479.28
2023-07-15T07:35:29.488Z,94477.69
2023-07-15T07:37:55.854Z,94481.72
2023-07-15T07:40:22.259Z,94473.63
2023-07-15T07:42:48.624Z,94478.78
2023-07-15T07:45:14.927Z,94471.53
2023-07-15T07:47:41.295Z,94473.66
2023-07-15T07:50:07.665Z,94470.41
2023-07-15T07:52:34.039Z,94474.78
2023-07-15T07:55:00.361Z,94468.50
2023-07-15T07:57:26.679Z,94479.84
2023-07-15T07:59:52.990Z,94471.44
2023-07-15T08:02:19.395Z,94467.84
2023-07-15T08:04:45.851Z,94459.41
2023-07-15T08:07:12.439Z,94463.88
2023-07-15T08:09:38.846Z,94461.53
2023-07-15T08:12:05.296Z,94457.50
2023-07-15T08:14:31.622Z,94457.19
2023-07-15T08:16:58.026Z,94466.97
2023-07-15T08:19:24.442Z,94460.69
2023-07-15T08:21:50.819Z,94453.31
2023-07-15T08:24:17.153Z,94455.94
2023-07-15T08:26:43.544Z,94448.56
2023-07-15T08:29:09.912Z,94453.41
2023-07-15T08:31:36.367Z,94453.19
2023-07-15T08:34:02.757Z,94445.72
2023-07-15T08:36:29.115Z,94453.47
2023-07-15T08:38:55.426Z,94454.59
2023-07-15T08:41:21.789Z,94459.50
2023-07-15T08:43:50.816Z,94447.03
2023-07-15T08:46:17.687Z,94448.56
2023-07-15T08:48:44.106Z,94454.44
2023-07-15T08:51:10.426Z,94449.31
2023-07-15T08:53:36.767Z,94447.69
2023-07-15T08:56:03.170Z,94444.59
2023-07-15T08:58:29.550Z,94451.53
2023-07-15T09:00:56.026Z,94444.72
2023-07-15T09:03:22.420Z,94447.63
2023-07-15T09:05:48.851Z,94447.47
2023-07-15T09:08:15.171Z,94448.13
2023-07-15T09:10:41.569Z,94449.03
2023-07-15T09:13:07.894Z,94451.94
2023-07-15T09:15:34.273Z,94450.00
2023-07-15T09:18:00.781Z,94447.50
2023-07-15T09:20:27.276Z,94444.50
2023-07-15T09:22:53.831Z,94446.78
2023-07-15T09:25:20.341Z,94437.78
2023-07-15T09:27:46.670Z,94439.84
2023-07-15T09:30:13.042Z,94437.13
2023-07-15T09:32:39.465Z,94440.31
2023-07-15T09:35:05.864Z,94432.00
2023-07-15T09:37:32.235Z,94431.00
2023-07-15T09:39:58.638Z,94425.94
2023-07-15T09:42:25.025Z,94423.16
2023-07-15T09:44:51.428Z,94420.44
2023-07-15T09:47:17.745Z,94420.53
2023-07-15T09:49:44.115Z,94422.53
2023-07-15T09:52:10.498Z,94410.56
2023-07-15T09:54:36.882Z,94410.47
2023-07-15T09:57:03.218Z,94415.47
2023-07-15T09:59:29.549Z,94412.16
2023-07-15T10:01:55.904Z,94420.91
2023-07-15T10:04:22.352Z,94418.09
2023-07-15T10:06:48.751Z,94406.81
2023-07-15T10:09:15.074Z,94409.44
2023-07-15T10:11:41.403Z,94406.81
2023-07-15T10:14:07.711Z,94405.22
2023-07-15T10:16:34.142Z,94402.50
2023-07-15T10:19:00.558Z,94401.75
2023-07-15T10:21:26.867Z,94402.25
2023-07-15T10:23:53.181Z,94390.84
2023-07-15T10:26:19.552Z,94402.00
2023-07-15T10:28:45.879Z,94397.16
2023-07-15T10:31:12.256Z,94393.53
2023-07-15T10:33:38.639Z,94392.31
2023-07-15T10:36:05.025Z,94380.88
2023-07-15T10:38:31.345Z,94376.19
2023-07-15T10:40:57.720Z,94367.81
2023-07-15T10:43:24.097Z,94363.38
2023-07-15T10:45:50.433Z,94358.06
2023-07-15T10:48:16.795Z,94359.88
2023-07-15T10:50:43.180Z,94356.34
2023-07-15T10:53:09.576Z,94352.31
2023-07-15T10:55:35.986Z,94345.28
2023-07-15T10:58:02.315Z,94349.91
2023-07-15T11:00:28.835Z,94343.34
2023-07-15T11:02:55.310Z,94339.19
2023-07-15T11:05:21.763Z,94330.81
2023-07-15T11:07:48.159Z,94323.56
2023-07-15T11:10:14.643Z,94332.03
2023-07-15T11:12:41.089Z,94332.72
2023-07-15T11:15:07.459Z,94341.97
2023-07-15T11:17:33.888Z,94342.09
2023-07-15T11:20:00.309Z,94349.28
2023-07-15T11:22:26.664Z,94347.56
2023-07-15T11:24:53.016Z,94361.56
2023-07-15T11:27:19.505Z,94354.00
2023-07-15T11:29:45.847Z,94362.25
2023-07-15T11:32:12.161Z,94356.53
2023-07-15T11:34:38.571Z,94363.69
2023-07-15T11:37:04.981Z,94362.88
2023-07-15T11:39:31.307Z,94370.09
2023-07-15T11:41:57.625Z,94371.81
2023-07-15T11:44:24.072Z,94368.59
2023-07-15T11:46:50.656Z,94385.22
2023-07-15T11:49:17.225Z,94383.00
2023-07-15T11:51:43.694Z,94385.00
2023-07-15T11:54:10.088Z,94387.16
2023-07-15T11:56:39.217Z,94411.44
2023-07-15T11:59:05.564Z,94420.59
2023-07-15T12:01:31.934Z,94428.25
2023-07-15T12:04:00.650Z,94436.19
2023-07-15T12:06:27.578Z,94428.59
2023-07-15T12:08:53.911Z,94417.50
2023-07-15T12:11:20.284Z,94412.75
2023-07-15T12:13:46.622Z,94398.25
2023-07-15T12:16:13.337Z,94373.56
2023-07-15T12:18:39.991Z,94358.00
2023-07-15T12:21:06.337Z,94368.41
2023-07-15T12:23:32.703Z,94364.00
2023-07-15T12:25:59.100Z,94368.28
2023-07-15T12:28:25.443Z,94363.06
2023-07-15T12:30:51.827Z,94359.56
2023-07-15T12:33:18.222Z,94359.16
2023-07-15T12:35:44.602Z,94361.66
2023-07-15T12:38:10.989Z,94355.44
2023-07-15T12:40:37.368Z,94354.91
2023-07-15T12:43:03.902Z,94354.13
2023-07-15T12:45:30.290Z,94353.72
2023-07-15T12:47:58.818Z,94351.66
2023-07-15T12:50:25.470Z,94345.34
2023-07-15T12:52:51.794Z,94350.84
2023-07-15T12:55:18.097Z,94354.44
2023-07-15T12:57:44.485Z,94351.38
2023-07-15T13:00:10.808Z,94358.41
2023-07-15T13:02:37.223Z,94359.38
2023-07-15T13:05:03.613Z,94352.28
2023-07-15T13:07:29.932Z,94351.47
2023-07-15T13:09:56.489Z,94350.59
2023-07-15T13:12:22.879Z,94352.66
2023-07-15T13:14:49.265Z,94335.16
2023-07-15T13:17:15.692Z,94342.19
2023-07-15T13:19:42.017Z,94339.19
2023-07-15T13:22:08.379Z,94337.91
2023-07-15T13:24:34.714Z,94344.19
2023-07-15T13:27:01.042Z,94332.09
2023-07-15T13:29:27.381Z,94319.75
2023-07-15T13:31:53.738Z,94323.59
2023-07-15T13:34:20.129Z,94324.22
2023-07-15T13:39:35.957Z,94339.09
2023-07-15T13:44:44.792Z,94328.31
2023-07-15T13:52:47.799Z,94311.78
2023-07-15T14:32:20.019Z,94306.13
2023-07-15T14:34:46.424Z,94295.69
2023-07-15T14:37:13.106Z,94282.50
2023-07-15T14:39:39.483Z,94289.25
2023-07-15T14:42:05.888Z,94288.84
2023-07-15T14:44:32.275Z,94292.22
2023-07-15T14:46:58.688Z,94282.53
2023-07-15T14:49:26.114Z,94279.69
2023-07-15T14:51:52.628Z,94284.69
2023-07-15T14:54:18.997Z,94273.09
2023-07-15T14:56:45.377Z,94277.28
2023-07-15T14:59:11.764Z,94276.41
2023-07-15T15:01:38.254Z,94274.50
2023-07-15T15:04:04.739Z,94265.84
2023-07-15T15:06:31.136Z,94267.19
2023-07-15T15:08:57.456Z,94258.06
2023-07-15T15:11:23.804Z,94269.13
2023-07-15T15:13:50.181Z,94254.00
2023-07-15T15:16:16.517Z,94247.59
2023-07-15T15:18:42.846Z,94256.94
2023-07-15T15:21:09.242Z,94249.31
2023-07-15T15:23:35.661Z,94245.41
2023-07-15T15:26:02.006Z,94252.75
2023-07-15T15:28:28.371Z,94236.59
2023-07-15T15:30:54.751Z,94224.88
2023-07-15T15:33:21.219Z,94230.91
2023-07-15T15:35:47.622Z,94235.09
2023-07-15T15:38:13.955Z,94229.41
2023-07-15T15:40:40.324Z,94236.75
2023-07-15T15:43:06.703Z,94230.38
2023-07-15T15:45:33.069Z,94225.47
2023-07-15T15:47:59.542Z,94230.19
2023-07-15T15:50:25.909Z,94233.16
2023-07-15T15:52:52.221Z,94236.00
2023-07-15T15:55:18.584Z,94229.38
2023-07-15T15:57:44.902Z,94226.22
2023-07-15T16:00:11.211Z,94230.47
2023-07-15T16:02:37.600Z,94231.34
2023-07-15T16:05:04.017Z,94234.47
2023-07-15T16:07:30.348Z,94246.34
2023-07-15T16:09:56.711Z,94250.97
2023-07-15T16:12:23.094Z,94257.25
2023-07-15T16:14:49.475Z,94246.13
2023-07-15T16:17:15.853Z,94233.38
2023-07-15T16:19:42.166Z,94233.78
2023-07-15T16:22:08.552Z,94229.56
2023-07-15T16:24:34.937Z,94232.19
2023-07-15T16:27:01.326Z,94224.03
2023-07-15T16:29:27.664Z,94222.81
2023-07-15T16:31:54.017Z,94232.06
2023-07-15T16:34:20.407Z,94216.72
2023-07-15T16:36:46.739Z,94211.91
2023-07-15T16:39:13.063Z,94212.88
2023-07-15T16:41:39.376Z,94204.72
2023-07-15T16:44:05.703Z,94192.38
2023-07-15T16:46:32.058Z,94216.38
2023-07-15T16:48:58.394Z,94207.16
2023-07-15T16:51:24.800Z,94208.84
2023-07-15T16:53:51.127Z,94219.41
2023-07-15T16:56:17.457Z,94222.97
2023-07-15T16:58:43.825Z,94230.44
2023-07-15T17:01:10.249Z,94241.03
2023-07-15T17:03:36.708Z,94252.47
2023-07-15T17:06:03.082Z,94238.03
2023-07-15T17:08:29.413Z,94243.06
2023-07-15T17:10:55.755Z,94249.38
2023-07-15T17:13:22.081Z,94244.00
2023-07-15T17:15:48.484Z,94240.66
2023-07-15T17:18:14.929Z,94247.16
2023-07-15T17:20:41.316Z,94252.13
2023-07-15T17:23:07.799Z,94255.84
2023-07-15T17:25:34.272Z,94259.06
2023-07-15T17:28:00.620Z,94258.84
2023-07-15T17:30:26.986Z,94270.34
2023-07-15T17:32:53.373Z,94270.09
2023-07-15T17:35:19.774Z,94267.88
2023-07-15T17:37:46.096Z,94271.41
2023-07-15T17:40:12.497Z,94268.50
2023-07-15T17:42:38.875Z,94271.47
2023-07-15T17:45:05.215Z,94265.88
2023-07-15T17:47:31.587Z,94271.94
2023-07-15T17:49:58.013Z,94263.59
2023-07-15T17:52:24.439Z,94265.81
2023-07-15T17:54:50.811Z,94272.63
2023-07-15T17:57:17.154Z,94267.81
2023-07-15T17:59:43.532Z,94266.81
2023-07-15T18:02:09.861Z,94276.06
2023-07-15T18:04:36.253Z,94282.59
2023-07-15T18:07:02.668Z,94280.78
2023-07-15T18:09:29.015Z,94282.09
2023-07-15T18:11:55.363Z,94290.53
2023-07-15T18:14:21.749Z,94294.06
2023-07-15T18:16:48.062Z,94293.47
2023-07-15T18:19:14.434Z,94293.25
2023-07-15T18:21:40.825Z,94300.00
2023-07-15T18:24:07.201Z,94310.06
2023-07-15T18:26:33.584Z,94309.69
2023-07-15T18:28:59.959Z,94299.41
2023-07-15T18:31:26.381Z,94308.16
2023-07-15T18:33:52.758Z,94329.97
2023-07-15T18:36:19.124Z,94332.78
2023-07-15T18:38:45.457Z,94337.72
2023-07-15T18:41:11.777Z,94336.81
2023-07-15T18:43:38.168Z,94335.16
2023-07-15T18:46:04.526Z,94348.81
2023-07-15T18:48:30.859Z,94362.19
2023-07-15T18:50:57.209Z,94355.25
2023-07-15T18:53:24.615Z,94356.75
2023-07-15T18:55:50.946Z,94351.28
2023-07-15T18:58:17.271Z,94344.22
2023-07-15T19:00:43.704Z,94353.88
2023-07-15T19:03:10.266Z,94340.91
2023-07-15T19:05:36.644Z,94348.91
2023-07-15T19:08:03.017Z,94338.44
2023-07-15T19:10:29.407Z,94352.88
2023-07-15T19:12:55.804Z,94368.22
2023-07-15T19:15:22.220Z,94364.66
2023-07-15T19:17:48.567Z,94364.66
2023-07-15T19:20:14.967Z,94376.13
2023-07-15T19:22:41.437Z,94391.09
2023-07-15T19:25:07.973Z,94391.53
2023-07-15T19:27:34.751Z,94390.47
2023-07-15T19:30:01.917Z,94394.31
2023-07-15T19:32:28.631Z,94397.69
2023-07-15T19:34:55.033Z,94393.56
2023-07-15T19:37:21.370Z,94406.56
2023-07-15T19:39:47.702Z,94421.56
2023-07-15T19:42:14.108Z,94437.78
2023-07-15T19:44:40.499Z,94436.31
2023-07-15T19:47:06.958Z,94456.75
2023-07-15T19:49:33.377Z,94462.97
2023-07-15T19:51:59.736Z,94472.34
2023-07-15T19:54:26.147Z,94479.84
2023-07-15T19:56:52.530Z,94490.13
2023-07-15T19:59:18.911Z,94486.34
2023-07-15T20:01:46.325Z,94486.94
2023-07-15T20:04:12.821Z,94475.81
2023-07-15T20:06:39.200Z,94494.00
2023-07-15T20:09:05.547Z,94491.94
2023-07-15T20:11:32.074Z,94491.41
2023-07-15T20:13:58.682Z,94502.31
2023-07-15T20:16:25.058Z,94505.00
2023-07-15T20:18:51.530Z,94508.53
2023-07-15T20:21:17.983Z,94509.88
2023-07-15T20:23:44.423Z,94514.19
2023-07-15T20:26:10.818Z,94516.91
2023-07-15T20:28:37.193Z,94509.88
2023-07-15T20:31:03.773Z,94509.63
2023-07-15T20:33:30.227Z,94523.13
2023-07-15T20:35:56.570Z,94524.00
2023-07-15T20:38:22.974Z,94534.03
2023-07-15T20:40:56.584Z,94529.75
2023-07-15T20:43:24.282Z,94547.59
2023-07-15T20:45:50.830Z,94557.84
2023-07-15T20:48:17.292Z,94553.06
2023-07-15T20:50:43.647Z,94560.34
2023-07-15T20:53:10.071Z,94558.16
2023-07-15T20:55:36.795Z,94558.69
2023-07-15T20:58:03.214Z,94566.00
2023-07-15T21:00:29.647Z,94567.88
2023-07-15T21:02:56.146Z,94579.78
2023-07-15T21:05:22.823Z,94581.69
2023-07-15T21:07:49.173Z,94592.25
2023-07-15T21:10:15.541Z,94598.19
2023-07-15T21:12:41.932Z,94604.97
2023-07-15T21:15:08.406Z,94608.47
2023-07-15T21:17:34.846Z,94618.22
2023-07-15T21:20:01.329Z,94632.56
2023-07-15T21:22:27.799Z,94634.97
2023-07-15T21:24:54.257Z,94645.75
2023-07-15T21:27:20.785Z,94646.31
2023-07-15T21:29:51.412Z,94645.75
2023-07-15T21:32:17.845Z,94648.47
2023-07-15T21:34:45.087Z,94660.38
2023-07-15T21:37:13.984Z,94678.22
2023-07-15T21:39:40.584Z,94673.34
2023-07-15T21:42:07.143Z,94690.09
2023-07-15T21:44:33.477Z,94688.75
2023-07-15T21:47:00.213Z,94692.78
2023-07-15T21:49:26.633Z,94699.28
2023-07-15T21:51:53.020Z,94704.13
2023-07-15T21:54:19.429Z,94706.03
2023-07-15T21:56:45.829Z,94698.69
2023-07-15T21:59:13.012Z,94719.69
2023-07-15T22:01:39.479Z,94724.59
2023-07-15T22:04:05.946Z,94726.78
2023-07-15T22:06:32.368Z,94741.63
2023-07-15T22:08:58.734Z,94752.47
2023-07-15T22:11:25.773Z,94753.53
2023-07-15T22:13:52.318Z,94755.69
2023-07-15T22:16:19.981Z,94766.25
2023-07-15T22:18:46.839Z,94766.47
2023-07-15T22:21:13.251Z,94780.84
2023-07-15T22:23:39.861Z,94778.66
2023-07-15T22:26:06.766Z,94780.84
2023-07-15T22:28:33.371Z,94793.81
2023-07-15T22:30:59.724Z,94789.91
2023-07-15T22:33:26.073Z,94816.91
2023-07-15T22:35:52.397Z,94824.41
2023-07-15T22:38:18.713Z,94822.09
2023-07-15T22:40:45.052Z,94826.81
2023-07-15T22:43:11.444Z,94824.88
2023-07-15T22:45:52.071Z,94829.13
2023-07-15T22:48:21.561Z,94851.38
2023-07-15T22:50:47.894Z,94863.00
2023-07-15T22:53:14.272Z,94860.19
2023-07-15T22:55:40.625Z,94869.25
2023-07-15T22:58:07.076Z,94866.81
2023-07-15T23:00:33.600Z,94874.59
2023-07-15T23:03:00.129Z,94880.34
2023-07-15T23:05:30.871Z,94883.38
2023-07-15T23:07:57.399Z,94879.22
2023-07-15T23:10:23.812Z,94886.38
2023-07-15T23:12:50.200Z,94886.66
2023-07-15T23:15:16.612Z,94907.69
2023-07-15T23:17:43.202Z,94905.16
2023-07-15T23:20:09.922Z,94910.81
2023-07-15T23:22:37.189Z,94915.59
2023-07-15T23:25:03.578Z,94922.19
2023-07-15T23:27:29.970Z,94920.44
2023-07-15T23:29:56.358Z,94924.06
2023-07-15T23:32:22.748Z,94925.25
2023-07-15T23:34:49.104Z,94933.97
2023-07-15T23:37:15.428Z,94940.16
2023-07-15T23:39:41.774Z,94944.88
2023-07-15T23:42:08.483Z,94931.66
2023-07-15T23:44:34.879Z,94931.84
2023-07-15T23:47:01.289Z,94943.47
2023-07-15T23:49:29.230Z,94943.22
2023-07-15T23:51:58.674Z,94936.25
2023-07-15T23:54:25.094Z,94935.47
2023-07-15T23:56:53.587Z,94941.00
2023-07-15T23:59:19.979Z,94928.09
